sensor_id;sensor_type;location;lat;lon;timestamp;pressure;altitude;pressure_sealevel;temperature;humidity
51926;BME280;37952;51.938;15.480;2022-08-19T00:01:12;99076.20;;;26.73;53.07
51926;BME280;37952;51.938;15.480;2022-08-19T00:04:32;99081.59;;;26.71;53.04
51926;BME280;37952;51.938;15.480;2022-08-19T00:07:42;99083.98;;;26.70;52.99
51926;BME280;37952;51.938;15.480;2022-08-19T00:10:45;99090.35;;;26.70;52.54
51926;BME280;37952;51.938;15.480;2022-08-19T00:13:50;99086.34;;;26.70;52.56
51926;BME280;37952;51.938;15.480;2022-08-19T00:16:53;99087.70;;;26.68;52.94
51926;BME280;37952;51.938;15.480;2022-08-19T00:19:57;99082.83;;;26.66;53.21
51926;BME280;37952;51.938;15.480;2022-08-19T00:23:00;99079.29;;;26.64;53.40
51926;BME280;37952;51.938;15.480;2022-08-19T00:26:04;99075.52;;;26.58;53.71
51926;BME280;37952;51.938;15.480;2022-08-19T00:29:09;99070.71;;;26.52;54.09
51926;BME280;37952;51.938;15.480;2022-08-19T00:32:13;99068.16;;;26.46;54.50
51926;BME280;37952;51.938;15.480;2022-08-19T00:35:19;99069.09;;;26.41;54.54
51926;BME280;37952;51.938;15.480;2022-08-19T00:38:23;99062.42;;;26.35;54.89
51926;BME280;37952;51.938;15.480;2022-08-19T00:41:40;99065.52;;;26.30;55.41
51926;BME280;37952;51.938;15.480;2022-08-19T00:44:43;99064.63;;;26.23;56.04
51926;BME280;37952;51.938;15.480;2022-08-19T00:47:46;99056.24;;;26.13;56.10
51926;BME280;37952;51.938;15.480;2022-08-19T00:50:52;99055.51;;;26.08;56.36
51926;BME280;37952;51.938;15.480;2022-08-19T00:53:57;99050.65;;;26.02;56.36
51926;BME280;37952;51.938;15.480;2022-08-19T00:57:02;99053.99;;;26.02;56.23
51926;BME280;37952;51.938;15.480;2022-08-19T01:00:11;99048.92;;;25.98;56.75
51926;BME280;37952;51.938;15.480;2022-08-19T01:03:19;99039.02;;;25.95;56.46
51926;BME280;37952;51.938;15.480;2022-08-19T01:06:22;99038.23;;;25.90;56.31
51926;BME280;37952;51.938;15.480;2022-08-19T01:09:25;99041.09;;;25.87;56.62
51926;BME280;37952;51.938;15.480;2022-08-19T01:12:28;99038.54;;;25.84;56.70
51926;BME280;37952;51.938;15.480;2022-08-19T01:15:41;99039.38;;;25.82;56.78
51926;BME280;37952;51.938;15.480;2022-08-19T01:18:46;99051.97;;;25.79;56.65
51926;BME280;37952;51.938;15.480;2022-08-19T01:21:57;99064.42;;;25.78;56.48
51926;BME280;37952;51.938;15.480;2022-08-19T01:25:19;99067.27;;;25.76;56.67
51926;BME280;37952;51.938;15.480;2022-08-19T01:28:25;99054.80;;;25.77;56.69
51926;BME280;37952;51.938;15.480;2022-08-19T01:31:42;99064.69;;;25.75;56.66
51926;BME280;37952;51.938;15.480;2022-08-19T01:34:45;99052.06;;;25.73;56.55
51926;BME280;37952;51.938;15.480;2022-08-19T01:37:59;99046.45;;;25.70;56.77
51926;BME280;37952;51.938;15.480;2022-08-19T01:41:04;99047.59;;;25.68;56.80
51926;BME280;37952;51.938;15.480;2022-08-19T01:44:13;99049.79;;;25.69;56.71
51926;BME280;37952;51.938;15.480;2022-08-19T01:47:20;99046.11;;;25.71;56.76
51926;BME280;37952;51.938;15.480;2022-08-19T01:50:24;99038.77;;;25.72;56.55
51926;BME280;37952;51.938;15.480;2022-08-19T01:53:27;99025.73;;;25.74;56.36
51926;BME280;37952;51.938;15.480;2022-08-19T01:56:35;99013.23;;;25.79;56.13
51926;BME280;37952;51.938;15.480;2022-08-19T01:59:40;98992.69;;;25.81;55.97
51926;BME280;37952;51.938;15.480;2022-08-19T02:02:44;98972.57;;;25.79;56.04
51926;BME280;37952;51.938;15.480;2022-08-19T02:05:47;98967.78;;;25.77;56.13
51926;BME280;37952;51.938;15.480;2022-08-19T02:08:49;98961.92;;;25.77;56.25
51926;BME280;37952;51.938;15.480;2022-08-19T02:11:55;98959.04;;;25.75;56.10
51926;BME280;37952;51.938;15.480;2022-08-19T02:14:59;98950.98;;;25.72;56.16
51926;BME280;37952;51.938;15.480;2022-08-19T02:18:03;98947.91;;;25.68;56.09
51926;BME280;37952;51.938;15.480;2022-08-19T02:21:06;98943.90;;;25.66;55.93
51926;BME280;37952;51.938;15.480;2022-08-19T02:24:09;98945.20;;;25.59;56.01
51926;BME280;37952;51.938;15.480;2022-08-19T02:27:13;98948.13;;;25.50;56.61
51926;BME280;37952;51.938;15.480;2022-08-19T02:30:17;98953.55;;;25.37;56.55
51926;BME280;37952;51.938;15.480;2022-08-19T02:33:20;98948.92;;;25.30;56.92
51926;BME280;37952;51.938;15.480;2022-08-19T02:36:24;98948.55;;;25.26;57.05
51926;BME280;37952;51.938;15.480;2022-08-19T02:39:28;98955.89;;;25.20;57.31
51926;BME280;37952;51.938;15.480;2022-08-19T02:42:31;98956.02;;;25.17;57.34
51926;BME280;37952;51.938;15.480;2022-08-19T02:45:36;98947.48;;;25.18;57.51
51926;BME280;37952;51.938;15.480;2022-08-19T02:48:43;98943.70;;;25.15;57.57
51926;BME280;37952;51.938;15.480;2022-08-19T02:51:46;98939.52;;;25.11;57.53
51926;BME280;37952;51.938;15.480;2022-08-19T02:54:49;98939.05;;;25.11;57.60
51926;BME280;37952;51.938;15.480;2022-08-19T02:57:52;98938.40;;;25.07;57.78
51926;BME280;37952;51.938;15.480;2022-08-19T03:00:56;98941.31;;;25.05;57.66
51926;BME280;37952;51.938;15.480;2022-08-19T03:04:03;98947.84;;;25.00;57.65
51926;BME280;37952;51.938;15.480;2022-08-19T03:07:06;98948.71;;;24.97;57.83
51926;BME280;37952;51.938;15.480;2022-08-19T03:10:13;98952.33;;;24.95;57.84
51926;BME280;37952;51.938;15.480;2022-08-19T03:13:18;98951.41;;;24.91;57.70
51926;BME280;37952;51.938;15.480;2022-08-19T03:16:25;98947.11;;;24.88;58.01
51926;BME280;37952;51.938;15.480;2022-08-19T03:19:28;98949.19;;;24.85;58.05
51926;BME280;37952;51.938;15.480;2022-08-19T03:22:31;98949.27;;;24.82;58.46
51926;BME280;37952;51.938;15.480;2022-08-19T03:25:43;98946.48;;;24.82;58.09
51926;BME280;37952;51.938;15.480;2022-08-19T03:28:46;98947.94;;;24.83;58.11
51926;BME280;37952;51.938;15.480;2022-08-19T03:32:03;98947.31;;;24.84;58.08
51926;BME280;37952;51.938;15.480;2022-08-19T03:35:06;98955.10;;;24.82;58.21
51926;BME280;37952;51.938;15.480;2022-08-19T03:38:09;98959.83;;;24.79;58.01
51926;BME280;37952;51.938;15.480;2022-08-19T03:41:21;98960.12;;;24.76;58.14
51926;BME280;37952;51.938;15.480;2022-08-19T03:44:35;98958.83;;;24.73;58.21
51926;BME280;37952;51.938;15.480;2022-08-19T03:47:40;98961.98;;;24.72;58.13
51926;BME280;37952;51.938;15.480;2022-08-19T03:50:44;98979.12;;;24.68;58.45
51926;BME280;37952;51.938;15.480;2022-08-19T03:53:48;98980.11;;;24.65;58.18
51926;BME280;37952;51.938;15.480;2022-08-19T03:56:53;98984.72;;;24.61;58.24
51926;BME280;37952;51.938;15.480;2022-08-19T03:59:57;98982.34;;;24.57;58.22
51926;BME280;37952;51.938;15.480;2022-08-19T04:03:15;98980.21;;;24.54;58.33
51926;BME280;37952;51.938;15.480;2022-08-19T04:06:22;98979.26;;;24.53;58.50
51926;BME280;37952;51.938;15.480;2022-08-19T04:09:25;98981.02;;;24.55;58.14
51926;BME280;37952;51.938;15.480;2022-08-19T04:12:29;98991.66;;;24.56;58.39
51926;BME280;37952;51.938;15.480;2022-08-19T04:15:32;98993.31;;;24.55;58.31
51926;BME280;37952;51.938;15.480;2022-08-19T04:18:41;98996.92;;;24.52;58.29
51926;BME280;37952;51.938;15.480;2022-08-19T04:21:48;98996.08;;;24.50;58.28
51926;BME280;37952;51.938;15.480;2022-08-19T04:24:51;98991.36;;;24.53;58.17
51926;BME280;37952;51.938;15.480;2022-08-19T04:27:55;98992.66;;;24.57;58.11
51926;BME280;37952;51.938;15.480;2022-08-19T04:30:59;98993.77;;;24.59;58.08
51926;BME280;37952;51.938;15.480;2022-08-19T04:34:06;98994.53;;;24.60;58.11
51926;BME280;37952;51.938;15.480;2022-08-19T04:37:09;98998.16;;;24.64;58.08
51926;BME280;37952;51.938;15.480;2022-08-19T04:40:15;99002.20;;;24.68;58.20
51926;BME280;37952;51.938;15.480;2022-08-19T04:43:38;99013.96;;;24.69;58.19
51926;BME280;37952;51.938;15.480;2022-08-19T04:46:41;99018.54;;;24.70;58.08
51926;BME280;37952;51.938;15.480;2022-08-19T04:49:53;99015.50;;;24.70;58.21
51926;BME280;37952;51.938;15.480;2022-08-19T04:52:56;99009.98;;;24.71;57.89
51926;BME280;37952;51.938;15.480;2022-08-19T04:55:59;99008.44;;;24.71;57.84
51926;BME280;37952;51.938;15.480;2022-08-19T04:59:06;99004.79;;;24.74;57.91
51926;BME280;37952;51.938;15.480;2022-08-19T05:02:11;99008.11;;;24.75;58.09
51926;BME280;37952;51.938;15.480;2022-08-19T05:05:14;99000.02;;;24.76;57.92
51926;BME280;37952;51.938;15.480;2022-08-19T05:08:22;98994.73;;;24.79;57.80
51926;BME280;37952;51.938;15.480;2022-08-19T05:11:36;98984.33;;;24.82;57.71
51926;BME280;37952;51.938;15.480;2022-08-19T05:14:43;98977.63;;;24.86;57.52
51926;BME280;37952;51.938;15.480;2022-08-19T05:17:47;98973.35;;;24.86;57.51
51926;BME280;37952;51.938;15.480;2022-08-19T05:21:16;98970.36;;;24.82;57.68
51926;BME280;37952;51.938;15.480;2022-08-19T05:24:38;98978.54;;;24.79;57.82
51926;BME280;37952;51.938;15.480;2022-08-19T05:28:01;98983.53;;;24.80;57.88
51926;BME280;37952;51.938;15.480;2022-08-19T05:31:04;98980.18;;;24.82;57.85
51926;BME280;37952;51.938;15.480;2022-08-19T05:34:07;98985.04;;;24.82;57.77
51926;BME280;37952;51.938;15.480;2022-08-19T05:37:22;98994.77;;;24.80;57.84
51926;BME280;37952;51.938;15.480;2022-08-19T05:40:25;98999.47;;;24.82;57.80
51926;BME280;37952;51.938;15.480;2022-08-19T05:43:30;98998.10;;;24.84;57.81
51926;BME280;37952;51.938;15.480;2022-08-19T05:46:33;98989.88;;;24.86;57.80
51926;BME280;37952;51.938;15.480;2022-08-19T05:49:38;98998.98;;;24.87;57.60
51926;BME280;37952;51.938;15.480;2022-08-19T05:52:41;99008.64;;;24.86;57.52
51926;BME280;37952;51.938;15.480;2022-08-19T05:55:47;99012.08;;;24.86;57.61
51926;BME280;37952;51.938;15.480;2022-08-19T05:58:51;99015.23;;;24.85;57.60
51926;BME280;37952;51.938;15.480;2022-08-19T06:01:56;99016.68;;;24.85;57.63
51926;BME280;37952;51.938;15.480;2022-08-19T06:04:59;99014.33;;;24.84;57.56
51926;BME280;37952;51.938;15.480;2022-08-19T06:08:02;99013.15;;;24.85;57.68
51926;BME280;37952;51.938;15.480;2022-08-19T06:14:30;99017.77;;;24.85;57.62
51926;BME280;37952;51.938;15.480;2022-08-19T06:17:35;99019.83;;;24.89;57.68
51926;BME280;37952;51.938;15.480;2022-08-19T06:20:38;99023.92;;;24.92;57.82
51926;BME280;37952;51.938;15.480;2022-08-19T06:23:58;99022.19;;;24.93;57.84
51926;BME280;37952;51.938;15.480;2022-08-19T06:27:01;99026.01;;;24.93;57.72
51926;BME280;37952;51.938;15.480;2022-08-19T06:30:06;99028.29;;;24.92;57.69
51926;BME280;37952;51.938;15.480;2022-08-19T06:33:09;99026.70;;;24.90;57.72
51926;BME280;37952;51.938;15.480;2022-08-19T06:36:25;99030.73;;;24.88;57.98
51926;BME280;37952;51.938;15.480;2022-08-19T06:39:39;99033.75;;;24.87;57.99
51926;BME280;37952;51.938;15.480;2022-08-19T06:42:51;99029.16;;;24.89;57.72
51926;BME280;37952;51.938;15.480;2022-08-19T06:45:57;99037.11;;;24.92;57.87
51926;BME280;37952;51.938;15.480;2022-08-19T06:49:03;99038.70;;;24.95;57.81
51926;BME280;37952;51.938;15.480;2022-08-19T06:52:07;99046.17;;;24.93;57.77
51926;BME280;37952;51.938;15.480;2022-08-19T06:55:15;99046.48;;;24.95;57.79
51926;BME280;37952;51.938;15.480;2022-08-19T06:58:20;99054.02;;;25.00;57.77
51926;BME280;37952;51.938;15.480;2022-08-19T07:01:23;99060.51;;;25.06;57.72
51926;BME280;37952;51.938;15.480;2022-08-19T07:04:35;99056.69;;;25.11;57.73
51926;BME280;37952;51.938;15.480;2022-08-19T07:07:44;99055.95;;;25.14;57.58
51926;BME280;37952;51.938;15.480;2022-08-19T07:10:49;99063.52;;;25.21;57.70
51926;BME280;37952;51.938;15.480;2022-08-19T07:13:52;99061.73;;;25.25;57.65
51926;BME280;37952;51.938;15.480;2022-08-19T07:16:56;99062.73;;;25.28;57.46
51926;BME280;37952;51.938;15.480;2022-08-19T07:20:00;99067.27;;;25.32;57.50
51926;BME280;37952;51.938;15.480;2022-08-19T07:23:12;99076.96;;;25.33;57.27
51926;BME280;37952;51.938;15.480;2022-08-19T07:26:26;99082.71;;;25.34;57.27
51926;BME280;37952;51.938;15.480;2022-08-19T07:29:32;99083.63;;;25.39;57.31
51926;BME280;37952;51.938;15.480;2022-08-19T07:32:36;99086.84;;;25.47;57.32
51926;BME280;37952;51.938;15.480;2022-08-19T07:35:40;99090.96;;;25.49;57.28
51926;BME280;37952;51.938;15.480;2022-08-19T07:38:46;99095.25;;;25.47;57.14
51926;BME280;37952;51.938;15.480;2022-08-19T07:41:51;99097.58;;;25.51;57.26
51926;BME280;37952;51.938;15.480;2022-08-19T07:44:54;99099.57;;;25.53;57.36
51926;BME280;37952;51.938;15.480;2022-08-19T07:47:57;99101.86;;;25.56;57.18
51926;BME280;37952;51.938;15.480;2022-08-19T07:51:04;99103.95;;;25.58;57.53
51926;BME280;37952;51.938;15.480;2022-08-19T07:54:07;99105.05;;;25.62;57.16
51926;BME280;37952;51.938;15.480;2022-08-19T07:57:10;99108.84;;;25.69;57.02
51926;BME280;37952;51.938;15.480;2022-08-19T08:00:15;99120.95;;;25.67;57.27
51926;BME280;37952;51.938;15.480;2022-08-19T08:03:27;99119.13;;;25.66;57.29
51926;BME280;37952;51.938;15.480;2022-08-19T08:06:49;99130.42;;;25.67;57.63
51926;BME280;37952;51.938;15.480;2022-08-19T08:10:12;99136.59;;;25.65;57.72
51926;BME280;37952;51.938;15.480;2022-08-19T08:13:24;99139.08;;;25.64;57.60
51926;BME280;37952;51.938;15.480;2022-08-19T08:16:36;99147.47;;;25.55;57.65
51926;BME280;37952;51.938;15.480;2022-08-19T08:19:42;99150.49;;;25.47;57.64
51926;BME280;37952;51.938;15.480;2022-08-19T08:22:47;99155.70;;;25.42;58.14
51926;BME280;37952;51.938;15.480;2022-08-19T08:26:09;99157.09;;;25.27;58.93
51926;BME280;37952;51.938;15.480;2022-08-19T08:29:14;99156.04;;;25.24;59.22
51926;BME280;37952;51.938;15.480;2022-08-19T08:32:18;99165.22;;;25.26;59.19
51926;BME280;37952;51.938;15.480;2022-08-19T08:35:22;99164.23;;;25.16;59.97
51926;BME280;37952;51.938;15.480;2022-08-19T08:38:26;99168.41;;;24.97;60.16
51926;BME280;37952;51.938;15.480;2022-08-19T08:45:03;99166.67;;;24.89;60.30
51926;BME280;37952;51.938;15.480;2022-08-19T08:48:19;99163.02;;;24.97;59.54
51926;BME280;37952;51.938;15.480;2022-08-19T08:51:33;99157.79;;;25.04;59.57
51926;BME280;37952;51.938;15.480;2022-08-19T08:54:42;99159.64;;;25.13;59.49
51926;BME280;37952;51.938;15.480;2022-08-19T08:58:13;99159.04;;;25.15;59.52
51926;BME280;37952;51.938;15.480;2022-08-19T09:01:19;99163.25;;;25.10;59.45
51926;BME280;37952;51.938;15.480;2022-08-19T09:04:24;99167.36;;;25.05;59.46
51926;BME280;37952;51.938;15.480;2022-08-19T09:10:55;99160.13;;;25.07;59.16
51926;BME280;37952;51.938;15.480;2022-08-19T09:17:41;99174.19;;;25.05;59.27
51926;BME280;37952;51.938;15.480;2022-08-19T09:20:45;99170.48;;;25.05;59.44
51926;BME280;37952;51.938;15.480;2022-08-19T09:23:50;99179.67;;;24.99;59.41
51926;BME280;37952;51.938;15.480;2022-08-19T09:26:53;99186.52;;;24.78;60.17
51926;BME280;37952;51.938;15.480;2022-08-19T09:29:58;99171.80;;;24.64;60.40
51926;BME280;37952;51.938;15.480;2022-08-19T09:33:03;99182.92;;;24.61;60.84
51926;BME280;37952;51.938;15.480;2022-08-19T09:36:08;99180.13;;;24.56;61.05
51926;BME280;37952;51.938;15.480;2022-08-19T09:39:12;99185.52;;;24.62;60.97
51926;BME280;37952;51.938;15.480;2022-08-19T09:42:18;99191.35;;;24.66;60.55
51926;BME280;37952;51.938;15.480;2022-08-19T09:45:37;99190.83;;;24.68;60.63
51926;BME280;37952;51.938;15.480;2022-08-19T09:48:40;99180.17;;;24.76;60.43
51926;BME280;37952;51.938;15.480;2022-08-19T09:51:45;99174.55;;;24.82;60.43
51926;BME280;37952;51.938;15.480;2022-08-19T09:54:52;99169.33;;;24.81;60.15
51926;BME280;37952;51.938;15.480;2022-08-19T09:57:56;99164.86;;;24.75;60.51
51926;BME280;37952;51.938;15.480;2022-08-19T10:01:00;99165.41;;;24.79;60.22
51926;BME280;37952;51.938;15.480;2022-08-19T10:04:04;99157.85;;;24.81;60.52
51926;BME280;37952;51.938;15.480;2022-08-19T10:07:22;99164.54;;;24.78;60.73
51926;BME280;37952;51.938;15.480;2022-08-19T10:10:38;99166.17;;;24.69;61.04
51926;BME280;37952;51.938;15.480;2022-08-19T10:13:45;99172.77;;;24.77;60.99
51926;BME280;37952;51.938;15.480;2022-08-19T10:16:48;99170.87;;;24.97;60.41
51926;BME280;37952;51.938;15.480;2022-08-19T10:19:52;99166.80;;;24.97;60.59
51926;BME280;37952;51.938;15.480;2022-08-19T10:22:58;99150.05;;;24.94;60.45
51926;BME280;37952;51.938;15.480;2022-08-19T10:26:06;99149.17;;;25.03;60.17
51926;BME280;37952;51.938;15.480;2022-08-19T10:29:11;99153.30;;;25.06;60.21
51926;BME280;37952;51.938;15.480;2022-08-19T10:32:33;99155.96;;;25.04;60.23
51926;BME280;37952;51.938;15.480;2022-08-19T10:35:37;99160.92;;;25.06;60.28
51926;BME280;37952;51.938;15.480;2022-08-19T10:39:06;99151.43;;;25.26;59.85
51926;BME280;37952;51.938;15.480;2022-08-19T10:42:10;99163.52;;;25.41;59.44
51926;BME280;37952;51.938;15.480;2022-08-19T10:45:16;99169.24;;;25.53;59.14
51926;BME280;37952;51.938;15.480;2022-08-19T10:48:20;99184.65;;;25.69;59.05
51926;BME280;37952;51.938;15.480;2022-08-19T10:51:23;99188.31;;;25.82;58.47
51926;BME280;37952;51.938;15.480;2022-08-19T10:54:49;99200.77;;;25.91;58.34
51926;BME280;37952;51.938;15.480;2022-08-19T10:58:14;99202.23;;;25.97;58.01
51926;BME280;37952;51.938;15.480;2022-08-19T11:01:17;99205.80;;;25.83;57.99
51926;BME280;37952;51.938;15.480;2022-08-19T11:04:20;99211.98;;;25.75;58.25
51926;BME280;37952;51.938;15.480;2022-08-19T11:07:32;99218.35;;;25.79;58.33
51926;BME280;37952;51.938;15.480;2022-08-19T11:10:35;99223.52;;;25.77;58.59
51926;BME280;37952;51.938;15.480;2022-08-19T11:13:41;99216.06;;;25.83;58.33
51926;BME280;37952;51.938;15.480;2022-08-19T11:16:44;99215.65;;;25.84;58.09
51926;BME280;37952;51.938;15.480;2022-08-19T11:19:47;99219.34;;;25.71;58.62
51926;BME280;37952;51.938;15.480;2022-08-19T11:22:52;99223.39;;;25.59;58.82
51926;BME280;37952;51.938;15.480;2022-08-19T11:25:58;99225.48;;;25.46;59.16
51926;BME280;37952;51.938;15.480;2022-08-19T11:29:04;99220.95;;;25.46;59.22
51926;BME280;37952;51.938;15.480;2022-08-19T11:32:09;99217.74;;;25.54;59.11
51926;BME280;37952;51.938;15.480;2022-08-19T11:35:13;99218.31;;;25.61;59.28
51926;BME280;37952;51.938;15.480;2022-08-19T11:38:16;99220.65;;;25.54;59.35
51926;BME280;37952;51.938;15.480;2022-08-19T11:41:22;99222.67;;;25.52;59.16
51926;BME280;37952;51.938;15.480;2022-08-19T11:44:26;99227.96;;;25.53;59.40
51926;BME280;37952;51.938;15.480;2022-08-19T11:47:30;99233.28;;;25.49;59.26
51926;BME280;37952;51.938;15.480;2022-08-19T11:50:33;99236.32;;;25.53;59.19
51926;BME280;37952;51.938;15.480;2022-08-19T11:53:37;99244.33;;;25.58;59.14
51926;BME280;37952;51.938;15.480;2022-08-19T11:56:41;99247.98;;;25.59;59.07
51926;BME280;37952;51.938;15.480;2022-08-19T12:03:45;99260.33;;;25.31;59.15
51926;BME280;37952;51.938;15.480;2022-08-19T12:06:48;99265.76;;;25.22;59.32
51926;BME280;37952;51.938;15.480;2022-08-19T12:13:56;99268.42;;;25.20;59.21
51926;BME280;37952;51.938;15.480;2022-08-19T12:17:01;99266.22;;;25.13;59.26
51926;BME280;37952;51.938;15.480;2022-08-19T12:20:05;99271.81;;;25.27;59.13
51926;BME280;37952;51.938;15.480;2022-08-19T12:23:10;99278.67;;;25.38;58.80
51926;BME280;37952;51.938;15.480;2022-08-19T12:26:18;99272.30;;;25.35;58.72
51926;BME280;37952;51.938;15.480;2022-08-19T12:29:21;99277.70;;;25.30;59.03
51926;BME280;37952;51.938;15.480;2022-08-19T12:32:31;99273.29;;;25.33;58.92
51926;BME280;37952;51.938;15.480;2022-08-19T12:35:34;99275.16;;;25.32;58.97
51926;BME280;37952;51.938;15.480;2022-08-19T12:38:38;99287.14;;;25.28;58.63
51926;BME280;37952;51.938;15.480;2022-08-19T12:41:43;99288.48;;;25.14;58.99
51926;BME280;37952;51.938;15.480;2022-08-19T12:45:21;99291.56;;;25.13;59.22
51926;BME280;37952;51.938;15.480;2022-08-19T12:48:25;99292.98;;;24.97;59.78
51926;BME280;37952;51.938;15.480;2022-08-19T12:51:38;99293.48;;;24.97;59.83
51926;BME280;37952;51.938;15.480;2022-08-19T12:55:05;99287.64;;;25.02;59.55
51926;BME280;37952;51.938;15.480;2022-08-19T12:58:09;99290.86;;;25.04;59.60
51926;BME280;37952;51.938;15.480;2022-08-19T13:01:15;99288.80;;;25.01;59.61
51926;BME280;37952;51.938;15.480;2022-08-19T13:04:23;99287.64;;;25.01;59.76
51926;BME280;37952;51.938;15.480;2022-08-19T13:07:26;99276.54;;;24.90;60.18
51926;BME280;37952;51.938;15.480;2022-08-19T13:10:32;99267.89;;;24.96;60.35
51926;BME280;37952;51.938;15.480;2022-08-19T13:13:41;99265.55;;;25.25;59.79
51926;BME280;37952;51.938;15.480;2022-08-19T13:16:45;99266.91;;;25.56;59.11
51926;BME280;37952;51.938;15.480;2022-08-19T13:19:49;99268.86;;;25.61;58.81
51926;BME280;37952;51.938;15.480;2022-08-19T13:22:54;99263.88;;;25.77;58.44
51926;BME280;37952;51.938;15.480;2022-08-19T13:26:02;99279.67;;;25.75;58.28
51926;BME280;37952;51.938;15.480;2022-08-19T13:29:12;99272.79;;;25.72;58.50
51926;BME280;37952;51.938;15.480;2022-08-19T13:32:37;99273.66;;;25.99;58.16
51926;BME280;37952;51.938;15.480;2022-08-19T13:35:59;99274.98;;;26.22;57.68
51926;BME280;37952;51.938;15.480;2022-08-19T13:39:05;99276.20;;;26.28;57.51
51926;BME280;37952;51.938;15.480;2022-08-19T13:42:08;99273.77;;;26.63;57.17
51926;BME280;37952;51.938;15.480;2022-08-19T13:45:15;99270.98;;;26.70;56.52
51926;BME280;37952;51.938;15.480;2022-08-19T13:48:19;99271.63;;;26.65;56.53
51926;BME280;37952;51.938;15.480;2022-08-19T13:51:22;99272.53;;;26.66;56.34
51926;BME280;37952;51.938;15.480;2022-08-19T13:54:25;99277.23;;;26.78;56.24
51926;BME280;37952;51.938;15.480;2022-08-19T13:57:29;99275.91;;;26.85;56.09
51926;BME280;37952;51.938;15.480;2022-08-19T14:00:36;99269.82;;;26.84;55.67
51926;BME280;37952;51.938;15.480;2022-08-19T14:03:40;99271.11;;;26.83;55.73
51926;BME280;37952;51.938;15.480;2022-08-19T14:06:43;99281.23;;;26.87;55.72
51926;BME280;37952;51.938;15.480;2022-08-19T14:09:45;99277.41;;;26.85;55.28
51926;BME280;37952;51.938;15.480;2022-08-19T14:13:01;99275.29;;;26.67;55.80
51926;BME280;37952;51.938;15.480;2022-08-19T14:16:08;99274.49;;;26.67;55.99
51926;BME280;37952;51.938;15.480;2022-08-19T14:19:12;99284.61;;;26.60;56.03
51926;BME280;37952;51.938;15.480;2022-08-19T14:22:15;99285.83;;;26.50;56.20
51926;BME280;37952;51.938;15.480;2022-08-19T14:25:26;99282.34;;;26.39;56.34
51926;BME280;37952;51.938;15.480;2022-08-19T14:28:30;99284.27;;;26.37;56.51
51926;BME280;37952;51.938;15.480;2022-08-19T14:31:33;99285.30;;;26.26;56.74
51926;BME280;37952;51.938;15.480;2022-08-19T14:34:36;99279.90;;;26.22;56.96
51926;BME280;37952;51.938;15.480;2022-08-19T14:37:41;99274.70;;;26.28;56.83
51926;BME280;37952;51.938;15.480;2022-08-19T14:40:47;99273.48;;;26.21;56.90
51926;BME280;37952;51.938;15.480;2022-08-19T14:43:52;99260.40;;;26.06;57.18
51926;BME280;37952;51.938;15.480;2022-08-19T14:46:56;99260.98;;;26.08;57.23
51926;BME280;37952;51.938;15.480;2022-08-19T14:50:08;99267.23;;;26.02;57.50
51926;BME280;37952;51.938;15.480;2022-08-19T14:53:20;99267.36;;;26.01;57.61
51926;BME280;37952;51.938;15.480;2022-08-19T14:56:26;99263.27;;;26.12;57.38
51926;BME280;37952;51.938;15.480;2022-08-19T14:59:29;99259.30;;;26.17;57.20
51926;BME280;37952;51.938;15.480;2022-08-19T15:02:32;99256.73;;;26.18;57.27
51926;BME280;37952;51.938;15.480;2022-08-19T15:05:37;99256.77;;;26.26;57.14
51926;BME280;37952;51.938;15.480;2022-08-19T15:08:41;99257.00;;;26.34;56.99
51926;BME280;37952;51.938;15.480;2022-08-19T15:11:46;99263.73;;;26.45;56.84
51926;BME280;37952;51.938;15.480;2022-08-19T15:14:51;99264.93;;;26.52;56.57
51926;BME280;37952;51.938;15.480;2022-08-19T15:17:58;99264.84;;;26.50;56.73
51926;BME280;37952;51.938;15.480;2022-08-19T15:21:05;99261.64;;;26.53;56.66
51926;BME280;37952;51.938;15.480;2022-08-19T15:24:10;99261.79;;;26.64;56.55
51926;BME280;37952;51.938;15.480;2022-08-19T15:27:13;99265.02;;;26.75;56.59
51926;BME280;37952;51.938;15.480;2022-08-19T15:30:23;99265.14;;;26.73;56.54
51926;BME280;37952;51.938;15.480;2022-08-19T15:33:26;99262.36;;;26.67;56.58
51926;BME280;37952;51.938;15.480;2022-08-19T15:36:29;99265.16;;;26.62;56.69
51926;BME280;37952;51.938;15.480;2022-08-19T15:39:45;99266.63;;;26.62;56.62
51926;BME280;37952;51.938;15.480;2022-08-19T15:42:49;99264.19;;;26.67;56.56
51926;BME280;37952;51.938;15.480;2022-08-19T15:45:52;99261.34;;;26.65;56.53
51926;BME280;37952;51.938;15.480;2022-08-19T15:48:56;99264.95;;;26.42;57.02
51926;BME280;37952;51.938;15.480;2022-08-19T15:52:02;99266.95;;;26.34;57.10
51926;BME280;37952;51.938;15.480;2022-08-19T15:55:06;99264.63;;;26.41;57.05
51926;BME280;37952;51.938;15.480;2022-08-19T15:58:11;99271.58;;;26.29;57.32
51926;BME280;37952;51.938;15.480;2022-08-19T16:01:34;99266.74;;;26.10;57.84
51926;BME280;37952;51.938;15.480;2022-08-19T16:04:57;99270.35;;;26.08;58.08
51926;BME280;37952;51.938;15.480;2022-08-19T16:08:19;99266.95;;;25.96;58.62
51926;BME280;37952;51.938;15.480;2022-08-19T16:11:26;99266.44;;;26.06;58.58
51926;BME280;37952;51.938;15.480;2022-08-19T16:14:34;99265.48;;;26.25;57.93
51926;BME280;37952;51.938;15.480;2022-08-19T16:17:37;99268.89;;;26.21;57.91
51926;BME280;37952;51.938;15.480;2022-08-19T16:20:41;99269.98;;;26.08;58.24
51926;BME280;37952;51.938;15.480;2022-08-19T16:23:44;99269.23;;;25.84;59.01
51926;BME280;37952;51.938;15.480;2022-08-19T16:26:49;99262.31;;;25.90;58.59
51926;BME280;37952;51.938;15.480;2022-08-19T16:29:52;99258.73;;;25.87;58.60
51926;BME280;37952;51.938;15.480;2022-08-19T16:32:55;99262.55;;;25.84;58.78
51926;BME280;37952;51.938;15.480;2022-08-19T16:35:58;99264.89;;;25.80;58.95
51926;BME280;37952;51.938;15.480;2022-08-19T16:39:13;99266.17;;;25.75;59.16